sensor_id;sensor_type;location;lat;lon;timestamp;P1;durP1;ratioP1;P2;durP2;ratioP2
12976;SDS011;6553;48.412;9.514;2023-02-28T00:00:50;1.70;;;1.40;;
12976;SDS011;6553;48.412;9.514;2023-02-28T00:03:16;3.28;;;1.65;;
12976;SDS011;6553;48.412;9.514;2023-02-28T00:05:42;1.23;;;1.10;;
12976;SDS011;6553;48.412;9.514;2023-02-28T00:08:08;1.55;;;1.42;;
12976;SDS011;6553;48.412;9.514;2023-02-28T00:10:34;1.50;;;1.40;;
12976;SDS011;6553;48.412;9.514;2023-02-28T00:13:02;1.15;;;1.05;;
12976;SDS011;6553;48.412;9.514;2023-02-28T00:15:31;1.20;;;1.10;;
12976;SDS011;6553;48.412;9.514;2023-02-28T00:17:58;2.80;;;1.40;;
12976;SDS011;6553;48.412;9.514;2023-02-28T00:20:24;1.85;;;1.23;;
12976;SDS011;6553;48.412;9.514;2023-02-28T00:22:51;1.33;;;1.20;;
12976;SDS011;6553;48.412;9.514;2023-02-28T00:25:19;2.50;;;1.50;;
12976;SDS011;6553;48.412;9.514;2023-02-28T00:27:50;1.38;;;1.27;;
12976;SDS011;6553;48.412;9.514;2023-02-28T00:30:21;1.65;;;1.10;;
12976;SDS011;6553;48.412;9.514;2023-02-28T00:32:48;1.88;;;1.35;;
12976;SDS011;6553;48.412;9.514;2023-02-28T00:35:15;1.50;;;1.33;;
12976;SDS011;6553;48.412;9.514;2023-02-28T00:37:42;1.38;;;1.27;;
12976;SDS011;6553;48.412;9.514;2023-02-28T00:40:08;1.30;;;1.20;;
12976;SDS011;6553;48.412;9.514;2023-02-28T00:42:37;1.50;;;1.40;;
12976;SDS011;6553;48.412;9.514;2023-02-28T00:45:03;1.98;;;1.10;;
12976;SDS011;6553;48.412;9.514;2023-02-28T00:47:30;1.75;;;1.20;;
12976;SDS011;6553;48.412;9.514;2023-02-28T00:49:57;1.92;;;1.15;;
12976;SDS011;6553;48.412;9.514;2023-02-28T00:52:22;1.70;;;1.30;;
12976;SDS011;6553;48.412;9.514;2023-02-28T00:54:48;2.03;;;1.20;;
12976;SDS011;6553;48.412;9.514;2023-02-28T00:57:14;1.38;;;1.25;;
12976;SDS011;6553;48.412;9.514;2023-02-28T00:59:40;1.67;;;1.30;;
12976;SDS011;6553;48.412;9.514;2023-02-28T01:02:06;1.55;;;1.40;;
12976;SDS011;6553;48.412;9.514;2023-02-28T01:04:32;1.65;;;1.00;;
12976;SDS011;6553;48.412;9.514;2023-02-28T01:07:00;1.30;;;1.20;;
12976;SDS011;6553;48.412;9.514;2023-02-28T01:09:27;1.17;;;1.08;;
12976;SDS011;6553;48.412;9.514;2023-02-28T01:11:53;1.35;;;1.25;;
12976;SDS011;6553;48.412;9.514;2023-02-28T01:14:19;2.00;;;1.10;;
12976;SDS011;6553;48.412;9.514;2023-02-28T01:16:45;2.75;;;1.20;;
12976;SDS011;6553;48.412;9.514;2023-02-28T01:19:11;1.38;;;1.27;;
12976;SDS011;6553;48.412;9.514;2023-02-28T01:21:37;1.90;;;1.10;;
12976;SDS011;6553;48.412;9.514;2023-02-28T01:24:04;1.30;;;1.20;;
12976;SDS011;6553;48.412;9.514;2023-02-28T01:26:32;1.50;;;1.40;;
12976;SDS011;6553;48.412;9.514;2023-02-28T01:28:58;1.85;;;1.27;;
12976;SDS011;6553;48.412;9.514;2023-02-28T01:31:24;1.40;;;1.30;;
12976;SDS011;6553;48.412;9.514;2023-02-28T01:33:50;1.20;;;1.10;;
12976;SDS011;6553;48.412;9.514;2023-02-28T01:36:18;1.30;;;1.20;;
12976;SDS011;6553;48.412;9.514;2023-02-28T01:38:47;1.73;;;1.30;;
12976;SDS011;6553;48.412;9.514;2023-02-28T01:41:24;1.20;;;1.10;;
12976;SDS011;6553;48.412;9.514;2023-02-28T01:46:51;1.33;;;1.23;;
12976;SDS011;6553;48.412;9.514;2023-02-28T01:49:17;1.40;;;1.30;;
12976;SDS011;6553;48.412;9.514;2023-02-28T01:51:51;1.80;;;1.20;;
12976;SDS011;6553;48.412;9.514;2023-02-28T01:56:52;1.67;;;1.15;;
12976;SDS011;6553;48.412;9.514;2023-02-28T01:59:29;1.30;;;1.20;;
12976;SDS011;6553;48.412;9.514;2023-02-28T02:02:02;1.38;;;1.20;;
12976;SDS011;6553;48.412;9.514;2023-02-28T02:04:32;0.82;;;0.80;;
12976;SDS011;6553;48.412;9.514;2023-02-28T02:07:11;1.15;;;1.02;;
12976;SDS011;6553;48.412;9.514;2023-02-28T02:09:43;2.05;;;1.20;;
12976;SDS011;6553;48.412;9.514;2023-02-28T02:12:24;2.25;;;1.10;;
12976;SDS011;6553;48.412;9.514;2023-02-28T02:15:16;1.35;;;1.25;;
12976;SDS011;6553;48.412;9.514;2023-02-28T02:21:41;1.33;;;1.23;;
12976;SDS011;6553;48.412;9.514;2023-02-28T02:36:12;1.00;;;1.00;;
12976;SDS011;6553;48.412;9.514;2023-02-28T02:38:59;2.28;;;1.20;;
12976;SDS011;6553;48.412;9.514;2023-02-28T02:47:16;1.20;;;1.10;;
12976;SDS011;6553;48.412;9.514;2023-02-28T02:49:55;1.00;;;1.00;;
12976;SDS011;6553;48.412;9.514;2023-02-28T02:52:27;1.20;;;1.10;;
12976;SDS011;6553;48.412;9.514;2023-02-28T02:55:03;1.27;;;1.10;;
12976;SDS011;6553;48.412;9.514;2023-02-28T02:57:38;2.40;;;1.17;;
12976;SDS011;6553;48.412;9.514;2023-02-28T03:00:16;1.50;;;1.40;;
12976;SDS011;6553;48.412;9.514;2023-02-28T03:02:48;1.17;;;0.98;;
12976;SDS011;6553;48.412;9.514;2023-02-28T03:05:27;1.50;;;1.40;;
12976;SDS011;6553;48.412;9.514;2023-02-28T03:08:04;1.38;;;1.27;;
12976;SDS011;6553;48.412;9.514;2023-02-28T03:19:33;1.33;;;1.23;;
12976;SDS011;6553;48.412;9.514;2023-02-28T03:27:17;2.33;;;1.33;;
12976;SDS011;6553;48.412;9.514;2023-02-28T03:29:53;1.55;;;1.10;;
12976;SDS011;6553;48.412;9.514;2023-02-28T03:32:32;1.17;;;1.10;;
12976;SDS011;6553;48.412;9.514;2023-02-28T03:37:47;1.02;;;0.93;;
12976;SDS011;6553;48.412;9.514;2023-02-28T03:40:21;1.55;;;1.30;;
12976;SDS011;6553;48.412;9.514;2023-02-28T03:42:54;1.08;;;0.98;;
12976;SDS011;6553;48.412;9.514;2023-02-28T03:45:30;1.67;;;1.20;;
12976;SDS011;6553;48.412;9.514;2023-02-28T03:50:54;1.60;;;1.40;;
12976;SDS011;6553;48.412;9.514;2023-02-28T03:53:26;2.13;;;1.10;;
12976;SDS011;6553;48.412;9.514;2023-02-28T03:58:55;1.40;;;1.30;;
12976;SDS011;6553;48.412;9.514;2023-02-28T04:03:53;1.58;;;1.00;;
12976;SDS011;6553;48.412;9.514;2023-02-28T04:06:20;2.22;;;1.30;;
12976;SDS011;6553;48.412;9.514;2023-02-28T04:08:48;1.27;;;1.17;;
12976;SDS011;6553;48.412;9.514;2023-02-28T04:13:47;1.20;;;1.10;;
12976;SDS011;6553;48.412;9.514;2023-02-28T04:16:13;1.48;;;1.20;;
12976;SDS011;6553;48.412;9.514;2023-02-28T04:18:39;1.63;;;1.17;;
12976;SDS011;6553;48.412;9.514;2023-02-28T04:21:05;1.75;;;1.40;;
12976;SDS011;6553;48.412;9.514;2023-02-28T04:23:32;1.70;;;1.05;;
12976;SDS011;6553;48.412;9.514;2023-02-28T04:25:58;1.00;;;0.90;;
12976;SDS011;6553;48.412;9.514;2023-02-28T04:28:24;1.45;;;1.35;;
12976;SDS011;6553;48.412;9.514;2023-02-28T04:30:56;2.13;;;1.30;;
12976;SDS011;6553;48.412;9.514;2023-02-28T04:33:27;1.30;;;1.20;;
12976;SDS011;6553;48.412;9.514;2023-02-28T04:38:36;1.63;;;1.10;;
12976;SDS011;6553;48.412;9.514;2023-02-28T04:41:04;1.20;;;1.10;;
12976;SDS011;6553;48.412;9.514;2023-02-28T04:43:31;1.85;;;1.00;;
12976;SDS011;6553;48.412;9.514;2023-02-28T04:45:58;1.20;;;1.10;;
12976;SDS011;6553;48.412;9.514;2023-02-28T04:48:27;1.45;;;1.25;;
12976;SDS011;6553;48.412;9.514;2023-02-28T04:50:59;1.33;;;1.23;;
12976;SDS011;6553;48.412;9.514;2023-02-28T04:53:31;1.65;;;1.55;;
12976;SDS011;6553;48.412;9.514;2023-02-28T04:55:58;2.03;;;1.23;;
12976;SDS011;6553;48.412;9.514;2023-02-28T04:58:24;1.55;;;1.40;;
12976;SDS011;6553;48.412;9.514;2023-02-28T05:00:51;1.30;;;1.20;;
12976;SDS011;6553;48.412;9.514;2023-02-28T05:03:18;1.45;;;1.35;;
12976;SDS011;6553;48.412;9.514;2023-02-28T05:05:46;1.08;;;1.02;;
12976;SDS011;6553;48.412;9.514;2023-02-28T05:08:12;1.40;;;1.30;;
12976;SDS011;6553;48.412;9.514;2023-02-28T05:10:37;1.38;;;1.27;;
12976;SDS011;6553;48.412;9.514;2023-02-28T05:13:04;1.90;;;1.60;;
12976;SDS011;6553;48.412;9.514;2023-02-28T05:15:29;1.35;;;1.20;;
12976;SDS011;6553;48.412;9.514;2023-02-28T05:17:55;1.75;;;1.33;;
12976;SDS011;6553;48.412;9.514;2023-02-28T05:20:21;1.40;;;1.30;;
12976;SDS011;6553;48.412;9.514;2023-02-28T05:22:47;1.40;;;1.30;;
12976;SDS011;6553;48.412;9.514;2023-02-28T05:25:16;1.25;;;1.20;;
12976;SDS011;6553;48.412;9.514;2023-02-28T05:27:46;1.50;;;1.40;;
12976;SDS011;6553;48.412;9.514;2023-02-28T05:30:12;1.10;;;1.10;;
12976;SDS011;6553;48.412;9.514;2023-02-28T05:32:39;1.63;;;1.00;;
12976;SDS011;6553;48.412;9.514;2023-02-28T05:35:10;1.60;;;1.30;;
12976;SDS011;6553;48.412;9.514;2023-02-28T05:37:37;2.50;;;1.30;;
12976;SDS011;6553;48.412;9.514;2023-02-28T05:40:05;2.85;;;1.20;;
12976;SDS011;6553;48.412;9.514;2023-02-28T05:42:35;2.58;;;1.50;;
12976;SDS011;6553;48.412;9.514;2023-02-28T05:45:02;1.58;;;1.48;;
12976;SDS011;6553;48.412;9.514;2023-02-28T05:47:29;1.23;;;1.13;;
12976;SDS011;6553;48.412;9.514;2023-02-28T05:49:55;1.45;;;1.27;;
12976;SDS011;6553;48.412;9.514;2023-02-28T05:52:21;1.60;;;1.50;;
12976;SDS011;6553;48.412;9.514;2023-02-28T05:54:47;1.50;;;1.40;;
12976;SDS011;6553;48.412;9.514;2023-02-28T05:57:13;5.40;;;1.27;;
12976;SDS011;6553;48.412;9.514;2023-02-28T05:59:38;1.65;;;1.25;;
12976;SDS011;6553;48.412;9.514;2023-02-28T06:02:05;1.20;;;1.10;;
12976;SDS011;6553;48.412;9.514;2023-02-28T06:04:37;1.45;;;1.20;;
12976;SDS011;6553;48.412;9.514;2023-02-28T06:07:03;2.88;;;1.42;;
12976;SDS011;6553;48.412;9.514;2023-02-28T06:09:29;2.20;;;1.20;;
12976;SDS011;6553;48.412;9.514;2023-02-28T06:11:57;2.00;;;1.40;;
12976;SDS011;6553;48.412;9.514;2023-02-28T06:14:24;1.77;;;1.58;;
12976;SDS011;6553;48.412;9.514;2023-02-28T06:16:49;1.85;;;1.45;;
12976;SDS011;6553;48.412;9.514;2023-02-28T06:19:15;1.73;;;1.60;;
12976;SDS011;6553;48.412;9.514;2023-02-28T06:21:42;1.85;;;1.40;;
12976;SDS011;6553;48.412;9.514;2023-02-28T06:24:08;2.35;;;1.30;;
12976;SDS011;6553;48.412;9.514;2023-02-28T06:26:35;3.15;;;1.75;;
12976;SDS011;6553;48.412;9.514;2023-02-28T06:29:01;3.13;;;1.65;;
12976;SDS011;6553;48.412;9.514;2023-02-28T06:31:28;3.78;;;1.60;;
12976;SDS011;6553;48.412;9.514;2023-02-28T06:33:54;3.60;;;1.83;;
12976;SDS011;6553;48.412;9.514;2023-02-28T06:36:20;3.65;;;1.50;;
12976;SDS011;6553;48.412;9.514;2023-02-28T06:38:47;4.68;;;1.70;;
12976;SDS011;6553;48.412;9.514;2023-02-28T06:41:19;2.08;;;1.77;;
12976;SDS011;6553;48.412;9.514;2023-02-28T06:43:47;2.42;;;1.70;;
12976;SDS011;6553;48.412;9.514;2023-02-28T06:46:13;4.32;;;1.70;;
12976;SDS011;6553;48.412;9.514;2023-02-28T06:48:40;2.53;;;1.83;;
12976;SDS011;6553;48.412;9.514;2023-02-28T06:51:10;2.42;;;1.73;;
12976;SDS011;6553;48.412;9.514;2023-02-28T06:53:40;3.05;;;2.10;;
12976;SDS011;6553;48.412;9.514;2023-02-28T06:56:07;2.35;;;2.08;;
12976;SDS011;6553;48.412;9.514;2023-02-28T06:58:40;3.08;;;1.80;;
12976;SDS011;6553;48.412;9.514;2023-02-28T07:01:07;2.55;;;1.80;;
12976;SDS011;6553;48.412;9.514;2023-02-28T07:03:37;4.70;;;1.95;;
12976;SDS011;6553;48.412;9.514;2023-02-28T07:06:02;1.80;;;1.65;;
12976;SDS011;6553;48.412;9.514;2023-02-28T07:08:31;3.05;;;1.92;;
12976;SDS011;6553;48.412;9.514;2023-02-28T07:10:57;3.15;;;2.10;;
12976;SDS011;6553;48.412;9.514;2023-02-28T07:13:23;3.17;;;1.80;;
12976;SDS011;6553;48.412;9.514;2023-02-28T07:15:55;3.25;;;1.98;;
12976;SDS011;6553;48.412;9.514;2023-02-28T07:18:26;4.53;;;2.33;;
12976;SDS011;6553;48.412;9.514;2023-02-28T07:20:53;2.78;;;2.00;;
12976;SDS011;6553;48.412;9.514;2023-02-28T07:23:19;5.60;;;2.45;;
12976;SDS011;6553;48.412;9.514;2023-02-28T07:25:46;4.70;;;2.38;;
12976;SDS011;6553;48.412;9.514;2023-02-28T07:28:13;2.88;;;2.13;;
12976;SDS011;6553;48.412;9.514;2023-02-28T07:30:40;2.03;;;1.80;;
12976;SDS011;6553;48.412;9.514;2023-02-28T07:33:06;2.10;;;1.83;;
12976;SDS011;6553;48.412;9.514;2023-02-28T07:35:32;4.13;;;2.80;;
12976;SDS011;6553;48.412;9.514;2023-02-28T07:37:58;3.15;;;2.20;;
12976;SDS011;6553;48.412;9.514;2023-02-28T07:40:25;3.50;;;2.15;;
12976;SDS011;6553;48.412;9.514;2023-02-28T07:42:51;4.63;;;2.17;;
12976;SDS011;6553;48.412;9.514;2023-02-28T07:45:17;3.95;;;2.30;;
12976;SDS011;6553;48.412;9.514;2023-02-28T07:47:44;4.28;;;2.42;;
12976;SDS011;6553;48.412;9.514;2023-02-28T07:50:12;2.42;;;1.95;;
12976;SDS011;6553;48.412;9.514;2023-02-28T07:52:40;2.63;;;2.05;;
12976;SDS011;6553;48.412;9.514;2023-02-28T07:55:07;2.72;;;2.20;;
12976;SDS011;6553;48.412;9.514;2023-02-28T07:57:34;3.10;;;2.17;;
12976;SDS011;6553;48.412;9.514;2023-02-28T08:00:00;2.58;;;2.13;;
12976;SDS011;6553;48.412;9.514;2023-02-28T08:02:36;3.60;;;2.10;;
12976;SDS011;6553;48.412;9.514;2023-02-28T08:05:02;2.85;;;1.92;;
12976;SDS011;6553;48.412;9.514;2023-02-28T08:07:28;2.50;;;2.30;;
12976;SDS011;6553;48.412;9.514;2023-02-28T08:09:54;2.78;;;2.03;;
12976;SDS011;6553;48.412;9.514;2023-02-28T08:12:20;2.92;;;2.03;;
12976;SDS011;6553;48.412;9.514;2023-02-28T08:14:46;2.30;;;2.10;;
12976;SDS011;6553;48.412;9.514;2023-02-28T08:17:12;3.17;;;2.47;;
12976;SDS011;6553;48.412;9.514;2023-02-28T08:19:37;3.72;;;1.85;;
12976;SDS011;6553;48.412;9.514;2023-02-28T08:22:03;2.50;;;2.08;;
12976;SDS011;6553;48.412;9.514;2023-02-28T08:24:30;2.10;;;1.90;;
12976;SDS011;6553;48.412;9.514;2023-02-28T08:26:56;2.70;;;2.20;;
12976;SDS011;6553;48.412;9.514;2023-02-28T08:29:22;2.55;;;2.00;;
12976;SDS011;6553;48.412;9.514;2023-02-28T08:31:48;2.28;;;2.08;;
12976;SDS011;6553;48.412;9.514;2023-02-28T08:34:14;2.58;;;2.28;;
12976;SDS011;6553;48.412;9.514;2023-02-28T08:36:41;1.90;;;1.80;;
12976;SDS011;6553;48.412;9.514;2023-02-28T08:39:09;2.55;;;2.35;;
12976;SDS011;6553;48.412;9.514;2023-02-28T08:41:35;2.40;;;2.10;;
12976;SDS011;6553;48.412;9.514;2023-02-28T08:44:02;2.25;;;2.05;;
12976;SDS011;6553;48.412;9.514;2023-02-28T08:46:28;2.10;;;1.90;;
12976;SDS011;6553;48.412;9.514;2023-02-28T08:48:54;2.33;;;2.13;;
12976;SDS011;6553;48.412;9.514;2023-02-28T08:51:25;2.00;;;1.90;;
12976;SDS011;6553;48.412;9.514;2023-02-28T08:53:51;2.47;;;2.28;;
12976;SDS011;6553;48.412;9.514;2023-02-28T08:56:19;3.53;;;2.50;;
12976;SDS011;6553;48.412;9.514;2023-02-28T08:58:47;2.28;;;2.10;;
12976;SDS011;6553;48.412;9.514;2023-02-28T09:01:16;2.25;;;1.88;;
12976;SDS011;6553;48.412;9.514;2023-02-28T09:03:45;2.30;;;1.75;;
12976;SDS011;6553;48.412;9.514;2023-02-28T09:06:13;2.60;;;2.30;;
12976;SDS011;6553;48.412;9.514;2023-02-28T09:08:41;3.25;;;2.30;;
12976;SDS011;6553;48.412;9.514;2023-02-28T09:11:08;3.10;;;1.98;;
12976;SDS011;6553;48.412;9.514;2023-02-28T09:13:35;2.10;;;1.90;;
12976;SDS011;6553;48.412;9.514;2023-02-28T09:16:02;2.38;;;2.15;;
12976;SDS011;6553;48.412;9.514;2023-02-28T09:18:30;2.70;;;2.50;;
12976;SDS011;6553;48.412;9.514;2023-02-28T09:20:58;2.08;;;1.98;;
12976;SDS011;6553;48.412;9.514;2023-02-28T09:23:24;2.20;;;2.00;;
12976;SDS011;6553;48.412;9.514;2023-02-28T09:25:51;2.20;;;2.00;;
12976;SDS011;6553;48.412;9.514;2023-02-28T09:28:19;2.10;;;2.00;;
12976;SDS011;6553;48.412;9.514;2023-02-28T09:30:48;3.38;;;2.28;;
12976;SDS011;6553;48.412;9.514;2023-02-28T09:33:17;2.30;;;2.10;;
12976;SDS011;6553;48.412;9.514;2023-02-28T09:35:48;2.13;;;1.92;;
12976;SDS011;6553;48.412;9.514;2023-02-28T09:38:15;2.25;;;2.15;;
12976;SDS011;6553;48.412;9.514;2023-02-28T09:40:50;2.17;;;1.98;;
12976;SDS011;6553;48.412;9.514;2023-02-28T09:43:27;2.33;;;2.13;;
12976;SDS011;6553;48.412;9.514;2023-02-28T09:48:51;2.33;;;2.13;;
12976;SDS011;6553;48.412;9.514;2023-02-28T09:54:01;3.63;;;2.20;;
12976;SDS011;6553;48.412;9.514;2023-02-28T09:56:30;2.20;;;2.00;;
12976;SDS011;6553;48.412;9.514;2023-02-28T10:16:31;2.40;;;2.20;;
12976;SDS011;6553;48.412;9.514;2023-02-28T10:22:24;2.88;;;2.58;;
12976;SDS011;6553;48.412;9.514;2023-02-28T10:24:59;2.60;;;2.40;;
12976;SDS011;6553;48.412;9.514;2023-02-28T10:27:46;3.28;;;2.97;;
12976;SDS011;6553;48.412;9.514;2023-02-28T10:30:12;2.65;;;2.45;;
12976;SDS011;6553;48.412;9.514;2023-02-28T10:32:43;2.67;;;2.47;;
12976;SDS011;6553;48.412;9.514;2023-02-28T10:35:17;2.65;;;2.45;;
12976;SDS011;6553;48.412;9.514;2023-02-28T10:37:59;3.08;;;2.88;;
12976;SDS011;6553;48.412;9.514;2023-02-28T10:40:40;2.40;;;2.20;;
12976;SDS011;6553;48.412;9.514;2023-02-28T10:45:38;2.58;;;2.38;;
12976;SDS011;6553;48.412;9.514;2023-02-28T10:56:33;2.83;;;2.58;;
12976;SDS011;6553;48.412;9.514;2023-02-28T10:58:49;2.67;;;2.30;;
12976;SDS011;6553;48.412;9.514;2023-02-28T11:01:26;2.70;;;2.50;;
12976;SDS011;6553;48.412;9.514;2023-02-28T11:04:02;4.63;;;2.40;;
12976;SDS011;6553;48.412;9.514;2023-02-28T11:06:29;3.05;;;2.85;;
12976;SDS011;6553;48.412;9.514;2023-02-28T11:08:58;3.75;;;2.55;;
12976;SDS011;6553;48.412;9.514;2023-02-28T11:11:41;3.08;;;2.47;;
12976;SDS011;6553;48.412;9.514;2023-02-28T11:14:18;5.18;;;2.50;;
12976;SDS011;6553;48.412;9.514;2023-02-28T11:16:50;4.03;;;2.67;;
12976;SDS011;6553;48.412;9.514;2023-02-28T11:19:38;3.10;;;2.80;;
12976;SDS011;6553;48.412;9.514;2023-02-28T11:22:10;3.28;;;2.97;;
12976;SDS011;6553;48.412;9.514;2023-02-28T11:24:44;2.67;;;2.47;;
12976;SDS011;6553;48.412;9.514;2023-02-28T11:29:56;4.22;;;3.00;;
12976;SDS011;6553;48.412;9.514;2023-02-28T11:32:24;3.00;;;2.63;;
12976;SDS011;6553;48.412;9.514;2023-02-28T11:35:10;2.60;;;2.40;;
12976;SDS011;6553;48.412;9.514;2023-02-28T11:37:47;3.40;;;3.08;;
12976;SDS011;6553;48.412;9.514;2023-02-28T11:40:17;2.67;;;2.47;;
12976;SDS011;6553;48.412;9.514;2023-02-28T11:43:01;3.08;;;2.67;;
12976;SDS011;6553;48.412;9.514;2023-02-28T11:48:37;2.55;;;2.35;;
12976;SDS011;6553;48.412;9.514;2023-02-28T11:51:21;3.28;;;2.63;;
12976;SDS011;6553;48.412;9.514;2023-02-28T11:54:24;2.70;;;2.47;;
12976;SDS011;6553;48.412;9.514;2023-02-28T12:06:25;3.25;;;2.55;;
12976;SDS011;6553;48.412;9.514;2023-02-28T12:26:37;2.85;;;2.63;;
12976;SDS011;6553;48.412;9.514;2023-02-28T12:29:19;3.72;;;2.58;;
12976;SDS011;6553;48.412;9.514;2023-02-28T12:32:05;2.95;;;2.75;;
12976;SDS011;6553;48.412;9.514;2023-02-28T12:34:47;2.72;;;2.53;;
12976;SDS011;6553;48.412;9.514;2023-02-28T12:37:23;2.70;;;2.50;;
12976;SDS011;6553;48.412;9.514;2023-02-28T12:40:00;3.85;;;2.42;;
12976;SDS011;6553;48.412;9.514;2023-02-28T12:42:40;2.72;;;2.50;;
12976;SDS011;6553;48.412;9.514;2023-02-28T12:47:44;3.28;;;2.20;;
12976;SDS011;6553;48.412;9.514;2023-02-28T12:50:18;2.55;;;2.35;;
12976;SDS011;6553;48.412;9.514;2023-02-28T12:55:37;2.70;;;2.50;;
12976;SDS011;6553;48.412;9.514;2023-02-28T12:58:30;2.65;;;2.45;;
12976;SDS011;6553;48.412;9.514;2023-02-28T13:09:57;3.05;;;2.40;;
12976;SDS011;6553;48.412;9.514;2023-02-28T13:12:27;2.53;;;2.17;;
12976;SDS011;6553;48.412;9.514;2023-02-28T13:15:27;4.55;;;2.60;;
12976;SDS011;6553;48.412;9.514;2023-02-28T13:17:53;2.47;;;2.28;;
12976;SDS011;6553;48.412;9.514;2023-02-28T13:20:23;2.45;;;2.25;;
12976;SDS011;6553;48.412;9.514;2023-02-28T13:22:54;3.58;;;2.40;;
12976;SDS011;6553;48.412;9.514;2023-02-28T13:27:51;2.72;;;2.22;;
12976;SDS011;6553;48.412;9.514;2023-02-28T13:36:37;3.33;;;2.65;;
12976;SDS011;6553;48.412;9.514;2023-02-28T13:39:02;2.95;;;2.42;;
12976;SDS011;6553;48.412;9.514;2023-02-28T13:47:34;3.17;;;2.88;;
12976;SDS011;6553;48.412;9.514;2023-02-28T13:55:44;2.85;;;2.50;;
12976;SDS011;6553;48.412;9.514;2023-02-28T14:07:28;2.50;;;2.30;;
12976;SDS011;6553;48.412;9.514;2023-02-28T14:10:31;3.50;;;3.20;;
12976;SDS011;6553;48.412;9.514;2023-02-28T14:13:13;2.75;;;2.55;;
12976;SDS011;6553;48.412;9.514;2023-02-28T14:16:09;2.95;;;2.30;;
12976;SDS011;6553;48.412;9.514;2023-02-28T14:18:42;2.65;;;2.45;;
12976;SDS011;6553;48.412;9.514;2023-02-28T14:21:27;2.45;;;2.25;;
12976;SDS011;6553;48.412;9.514;2023-02-28T14:33:22;3.10;;;2.80;;
12976;SDS011;6553;48.412;9.514;2023-02-28T14:38:40;3.13;;;2.42;;
12976;SDS011;6553;48.412;9.514;2023-02-28T14:41:20;2.65;;;2.45;;
12976;SDS011;6553;48.412;9.514;2023-02-28T14:44:02;2.90;;;2.60;;
12976;SDS011;6553;48.412;9.514;2023-02-28T14:46:47;2.33;;;2.20;;
12976;SDS011;6553;48.412;9.514;2023-02-28T14:49:30;3.47;;;2.90;;
12976;SDS011;6553;48.412;9.514;2023-02-28T14:52:19;2.75;;;2.50;;
12976;SDS011;6553;48.412;9.514;2023-02-28T14:54:52;5.63;;;2.60;;
12976;SDS011;6553;48.412;9.514;2023-02-28T14:57:29;3.35;;;2.67;;
12976;SDS011;6553;48.412;9.514;2023-02-28T15:00:07;2.70;;;2.50;;
12976;SDS011;6553;48.412;9.514;2023-02-28T15:02:48;4.72;;;2.50;;
12976;SDS011;6553;48.412;9.514;2023-02-28T15:07:43;4.18;;;2.55;;
12976;SDS011;6553;48.412;9.514;2023-02-28T15:10:28;2.90;;;2.67;;
12976;SDS011;6553;48.412;9.514;2023-02-28T15:12:59;3.08;;;2.75;;
12976;SDS011;6553;48.412;9.514;2023-02-28T15:21:04;3.60;;;2.28;;
12976;SDS011;6553;48.412;9.514;2023-02-28T15:23:36;4.07;;;2.80;;
12976;SDS011;6553;48.412;9.514;2023-02-28T15:26:05;2.40;;;2.20;;
12976;SDS011;6553;48.412;9.514;2023-02-28T15:28:32;4.57;;;2.60;;
12976;SDS011;6553;48.412;9.514;2023-02-28T15:30:59;2.72;;;2.22;;
12976;SDS011;6553;48.412;9.514;2023-02-28T15:33:32;2.65;;;2.45;;
12976;SDS011;6553;48.412;9.514;2023-02-28T15:36:32;3.05;;;2.50;;
12976;SDS011;6553;48.412;9.514;2023-02-28T15:38:55;3.35;;;2.17;;
12976;SDS011;6553;48.412;9.514;2023-02-28T15:41:22;2.92;;;2.55;;
12976;SDS011;6553;48.412;9.514;2023-02-28T15:46:59;2.80;;;2.60;;
12976;SDS011;6553;48.412;9.514;2023-02-28T15:49:27;5.30;;;3.10;;
12976;SDS011;6553;48.412;9.514;2023-02-28T15:51:58;3.38;;;2.78;;
12976;SDS011;6553;48.412;9.514;2023-02-28T15:54:30;3.90;;;3.60;;
12976;SDS011;6553;48.412;9.514;2023-02-28T15:57:04;3.72;;;3.00;;
12976;SDS011;6553;48.412;9.514;2023-02-28T15:59:33;3.30;;;2.80;;
12976;SDS011;6553;48.412;9.514;2023-02-28T16:02:30;3.42;;;3.13;;
12976;SDS011;6553;48.412;9.514;2023-02-28T16:07:31;3.40;;;2.80;;
12976;SDS011;6553;48.412;9.514;2023-02-28T16:09:59;4.18;;;3.38;;
12976;SDS011;6553;48.412;9.514;2023-02-28T16:12:27;3.88;;;3.10;;
12976;SDS011;6553;48.412;9.514;2023-02-28T16:14:59;3.80;;;3.40;;
12976;SDS011;6553;48.412;9.514;2023-02-28T16:17:33;3.10;;;2.55;;
12976;SDS011;6553;48.412;9.514;2023-02-28T16:20:25;4.30;;;2.80;;
12976;SDS011;6553;48.412;9.514;2023-02-28T16:22:55;5.65;;;2.90;;
12976;SDS011;6553;48.412;9.514;2023-02-28T16:25:35;2.78;;;2.58;;
12976;SDS011;6553;48.412;9.514;2023-02-28T16:28:05;3.63;;;2.83;;
12976;SDS011;6553;48.412;9.514;2023-02-28T16:30:51;4.57;;;2.67;;
12976;SDS011;6553;48.412;9.514;2023-02-28T16:33:18;3.90;;;2.90;;
12976;SDS011;6553;48.412;9.514;2023-02-28T16:35:43;2.85;;;2.50;;
12976;SDS011;6553;48.412;9.514;2023-02-28T16:38:09;4.30;;;2.63;;
12976;SDS011;6553;48.412;9.514;2023-02-28T16:40:35;2.70;;;2.50;;
12976;SDS011;6553;48.412;9.514;2023-02-28T16:43:04;3.17;;;2.45;;
12976;SDS011;6553;48.412;9.514;2023-02-28T16:45:38;5.63;;;2.67;;
12976;SDS011;6553;48.412;9.514;2023-02-28T16:48:04;3.83;;;2.70;;
12976;SDS011;6553;48.412;9.514;2023-02-28T16:50:30;4.30;;;2.80;;
12976;SDS011;6553;48.412;9.514;2023-02-28T16:52:59;2.70;;;2.50;;
12976;SDS011;6553;48.412;9.514;2023-02-28T16:55:26;2.60;;;2.40;;
12976;SDS011;6553;48.412;9.514;2023-02-28T16:57:56;2.92;;;2.72;;
12976;SDS011;6553;48.412;9.514;2023-02-28T17:00:25;2.97;;;2.58;;
12976;SDS011;6553;48.412;9.514;2023-02-28T17:02:54;3.45;;;2.63;;
12976;SDS011;6553;48.412;9.514;2023-02-28T17:05:21;3.28;;;2.97;;
12976;SDS011;6553;48.412;9.514;2023-02-28T17:07:48;2.80;;;2.60;;
12976;SDS011;6553;48.412;9.514;2023-02-28T17:10:16;2.50;;;2.30;;
12976;SDS011;6553;48.412;9.514;2023-02-28T17:12:46;4.05;;;3.65;;
12976;SDS011;6553;48.412;9.514;2023-02-28T17:15:14;3.42;;;3.13;;
12976;SDS011;6553;48.412;9.514;2023-02-28T17:17:42;4.75;;;2.80;;
12976;SDS011;6553;48.412;9.514;2023-02-28T17:20:13;4.13;;;2.55;;
12976;SDS011;6553;48.412;9.514;2023-02-28T17:22:43;3.45;;;2.83;;
12976;SDS011;6553;48.412;9.514;2023-02-28T17:25:09;4.07;;;2.72;;
12976;SDS011;6553;48.412;9.514;2023-02-28T17:27:36;3.88;;;3.00;;
12976;SDS011;6553;48.412;9.514;2023-02-28T17:30:03;4.68;;;3.00;;
12976;SDS011;6553;48.412;9.514;2023-02-28T17:32:44;8.05;;;3.20;;
12976;SDS011;6553;48.412;9.514;2023-02-28T17:35:11;4.95;;;2.80;;
12976;SDS011;6553;48.412;9.514;2023-02-28T17:37:37;2.83;;;2.63;;
12976;SDS011;6553;48.412;9.514;2023-02-28T17:40:03;5.05;;;2.92;;
12976;SDS011;6553;48.412;9.514;2023-02-28T17:42:31;5.15;;;3.30;;
12976;SDS011;6553;48.412;9.514;2023-02-28T17:44:56;3.97;;;3.05;;
12976;SDS011;6553;48.412;9.514;2023-02-28T17:47:22;5.88;;;3.60;;
12976;SDS011;6553;48.412;9.514;2023-02-28T17:49:48;6.13;;;3.28;;
12976;SDS011;6553;48.412;9.514;2023-02-28T17:52:14;5.10;;;2.88;;
12976;SDS011;6553;48.412;9.514;2023-02-28T17:54:39;6.13;;;3.60;;
12976;SDS011;6553;48.412;9.514;2023-02-28T17:57:05;5.53;;;3.03;;
12976;SDS011;6553;48.412;9.514;2023-02-28T17:59:31;3.60;;;2.97;;
12976;SDS011;6553;48.412;9.514;2023-02-28T18:02:01;4.38;;;3.25;;
12976;SDS011;6553;48.412;9.514;2023-02-28T18:04:28;5.05;;;3.03;;
12976;SDS011;6553;48.412;9.514;2023-02-28T18:06:54;5.60;;;2.90;;
12976;SDS011;6553;48.412;9.514;2023-02-28T18:09:25;3.80;;;2.83;;
12976;SDS011;6553;48.412;9.514;2023-02-28T18:11:53;4.13;;;2.45;;
12976;SDS011;6553;48.412;9.514;2023-02-28T18:14:21;3.03;;;2.80;;
12976;SDS011;6553;48.412;9.514;2023-02-28T18:16:50;3.20;;;2.90;;
12976;SDS011;6553;48.412;9.514;2023-02-28T18:19:18;3.47;;;2.83;;
12976;SDS011;6553;48.412;9.514;2023-02-28T18:21:49;5.22;;;3.03;;
12976;SDS011;6553;48.412;9.514;2023-02-28T18:24:18;3.42;;;2.67;;
12976;SDS011;6553;48.412;9.514;2023-02-28T18:26:48;4.18;;;3.20;;
12976;SDS011;6553;48.412;9.514;2023-02-28T18:29:22;4.03;;;3.47;;
12976;SDS011;6553;48.412;9.514;2023-02-28T18:31:52;3.22;;;2.90;;
12976;SDS011;6553;48.412;9.514;2023-02-28T18:34:20;4.88;;;3.42;;
12976;SDS011;6553;48.412;9.514;2023-02-28T18:36:48;3.40;;;3.10;;